Main page
METAR-TAF:

METAR-TAF

Airports :

Cologne, Germany

Cologne Bonn Airport

latitude: 50-52N, longitude: 007-10E, elevation: 91 m

Current weather observation

The report was made 16 minutes ago, at 21:20 UTC
Wind 5 kt from the East
Temperature -1°C
Humidity 69%
Pressure 1028 hPa
Visibility 10 km or more
no clouds below 1500 m and no cumulonimbus

METAR: EDDK 212120Z 09005KT CAVOK M01/M06 Q1028 NOSIG

Time: 22:36 (21:36 UTC)

Forecast

The report was made 4 hours and 36 minutes ago, at 17:00 UTC
Forecast valid from 21 at 18 UTC to 22 at 24 UTC
Wind 4 kt from the East/Southeast
Visibility 10 km or more
no clouds below 1500 m and no cumulonimbus

TAF: EDDK 211700Z 2118/2224 12004KT CAVOK

Weather observations and forecasts of more than 4000 airports (METAR and TAF reports).

The available stations are represented by yellow and red dots on the map.

Hover mouse over dot to see the name of the station.

Then click to see weather observations and forecasts.

To change the map : click on the green buttons with a black cross to zoom in, on the green button with a dash to zoom out, or on the green arrows for adjacent maps.


METAR-TAF: